sensor_id;sensor_type;location;lat;lon;timestamp;pressure;altitude;pressure_sealevel;temperature;humidity
48015;BME280;33780;51.034;7.120;2023-04-28T00:02:09;100507.78;;;14.16;46.35
48015;BME280;33780;51.034;7.120;2023-04-28T00:04:34;100497.16;;;14.15;46.18
48015;BME280;33780;51.034;7.120;2023-04-28T00:06:59;100509.78;;;14.14;46.49
48015;BME280;33780;51.034;7.120;2023-04-28T00:09:24;100507.09;;;14.14;46.65
48015;BME280;33780;51.034;7.120;2023-04-28T00:11:50;100494.47;;;14.15;46.12
48015;BME280;33780;51.034;7.120;2023-04-28T00:14:15;100497.16;;;14.15;47.05
48015;BME280;33780;51.034;7.120;2023-04-28T00:16:40;100499.88;;;14.15;47.11
48015;BME280;33780;51.034;7.120;2023-04-28T00:19:06;100489.25;;;14.13;47.44
48015;BME280;33780;51.034;7.120;2023-04-28T00:21:31;100493.81;;;14.13;48.13
48015;BME280;33780;51.034;7.120;2023-04-28T00:23:57;100485.06;;;14.11;48.57
48015;BME280;33780;51.034;7.120;2023-04-28T00:26:22;100479.81;;;14.09;48.86
48015;BME280;33780;51.034;7.120;2023-04-28T00:28:47;100478.31;;;14.07;49.58
48015;BME280;33780;51.034;7.120;2023-04-28T00:31:14;100466.03;;;14.04;50.01
48015;BME280;33780;51.034;7.120;2023-04-28T00:33:42;100464.63;;;14.00;49.85
48015;BME280;33780;51.034;7.120;2023-04-28T00:36:08;100462.25;;;13.97;50.06
48015;BME280;33780;51.034;7.120;2023-04-28T00:38:34;100452.50;;;13.96;50.54
48015;BME280;33780;51.034;7.120;2023-04-28T00:40:59;100447.28;;;13.95;50.71
48015;BME280;33780;51.034;7.120;2023-04-28T00:43:25;100446.09;;;13.89;51.64
48015;BME280;33780;51.034;7.120;2023-04-28T00:45:51;100435.66;;;13.86;50.70
48015;BME280;33780;51.034;7.120;2023-04-28T00:48:17;100433.13;;;13.84;50.99
48015;BME280;33780;51.034;7.120;2023-04-28T00:50:43;100434.13;;;13.83;50.83
48015;BME280;33780;51.034;7.120;2023-04-28T00:53:10;100428.88;;;13.82;51.11
48015;BME280;33780;51.034;7.120;2023-04-28T00:55:36;100430.72;;;13.81;51.47
48015;BME280;33780;51.034;7.120;2023-04-28T00:58:01;100436.44;;;13.78;51.57
48015;BME280;33780;51.034;7.120;2023-04-28T01:00:27;100429.38;;;13.77;51.86
48015;BME280;33780;51.034;7.120;2023-04-28T01:02:52;100427.69;;;13.76;52.02
48015;BME280;33780;51.034;7.120;2023-04-28T01:05:19;100434.91;;;13.76;52.37
48015;BME280;33780;51.034;7.120;2023-04-28T01:07:44;100435.75;;;13.76;52.39
48015;BME280;33780;51.034;7.120;2023-04-28T01:10:10;100432.38;;;13.74;52.43
48015;BME280;33780;51.034;7.120;2023-04-28T01:12:35;100429.69;;;13.74;52.87
48015;BME280;33780;51.034;7.120;2023-04-28T01:15:00;100431.53;;;13.74;53.20
48015;BME280;33780;51.034;7.120;2023-04-28T01:17:26;100433.72;;;13.70;53.32
48015;BME280;33780;51.034;7.120;2023-04-28T01:19:51;100420.59;;;13.67;53.28
48015;BME280;33780;51.034;7.120;2023-04-28T01:22:17;100423.44;;;13.66;52.78
48015;BME280;33780;51.034;7.120;2023-04-28T01:24:42;100428.81;;;13.66;53.67
48015;BME280;33780;51.034;7.120;2023-04-28T01:27:08;100425.41;;;13.64;53.87
48015;BME280;33780;51.034;7.120;2023-04-28T01:29:34;100422.72;;;13.64;53.88
48015;BME280;33780;51.034;7.120;2023-04-28T01:32:00;100420.88;;;13.64;54.64
48015;BME280;33780;51.034;7.120;2023-04-28T01:34:25;100423.72;;;13.63;54.79
48015;BME280;33780;51.034;7.120;2023-04-28T01:36:50;100431.97;;;13.61;55.40
48015;BME280;33780;51.034;7.120;2023-04-28T01:39:16;100429.44;;;13.59;55.88
48015;BME280;33780;51.034;7.120;2023-04-28T01:41:41;100420.84;;;13.56;56.18
48015;BME280;33780;51.034;7.120;2023-04-28T01:44:06;100418.31;;;13.54;56.67
48015;BME280;33780;51.034;7.120;2023-04-28T01:46:32;100427.56;;;13.52;56.97
48015;BME280;33780;51.034;7.120;2023-04-28T01:48:58;100437.06;;;13.46;56.96
48015;BME280;33780;51.034;7.120;2023-04-28T01:51:24;100433.84;;;13.43;57.75
48015;BME280;33780;51.034;7.120;2023-04-28T01:53:49;100424.25;;;13.40;57.09
48015;BME280;33780;51.034;7.120;2023-04-28T01:56:14;100423.59;;;13.38;58.13
48015;BME280;33780;51.034;7.120;2023-04-28T01:58:40;100417.53;;;13.36;58.08
48015;BME280;33780;51.034;7.120;2023-04-28T02:01:05;100424.06;;;13.34;58.33
48015;BME280;33780;51.034;7.120;2023-04-28T02:03:31;100413.63;;;13.30;58.67
48015;BME280;33780;51.034;7.120;2023-04-28T02:05:56;100429.06;;;13.28;58.52
48015;BME280;33780;51.034;7.120;2023-04-28T02:08:21;100421.44;;;13.24;59.71
48015;BME280;33780;51.034;7.120;2023-04-28T02:10:47;100430.66;;;13.21;59.57
48015;BME280;33780;51.034;7.120;2023-04-28T02:13:12;100425.63;;;13.18;59.83
48015;BME280;33780;51.034;7.120;2023-04-28T02:15:41;100434.66;;;13.17;59.54
48015;BME280;33780;51.034;7.120;2023-04-28T02:18:07;100427.75;;;13.15;59.94
48015;BME280;33780;51.034;7.120;2023-04-28T02:20:32;100430.59;;;13.13;60.53
48015;BME280;33780;51.034;7.120;2023-04-28T02:22:58;100430.03;;;13.10;61.70
48015;BME280;33780;51.034;7.120;2023-04-28T02:25:23;100435.72;;;13.07;61.70
48015;BME280;33780;51.034;7.120;2023-04-28T02:27:48;100434.19;;;13.04;61.44
48015;BME280;33780;51.034;7.120;2023-04-28T02:30:14;100428.13;;;13.02;61.62
48015;BME280;33780;51.034;7.120;2023-04-28T02:32:39;100430.13;;;13.00;61.36
48015;BME280;33780;51.034;7.120;2023-04-28T02:35:05;100426.44;;;13.01;61.17
48015;BME280;33780;51.034;7.120;2023-04-28T02:37:30;100424.59;;;13.01;61.47
48015;BME280;33780;51.034;7.120;2023-04-28T02:39:55;100429.28;;;12.99;62.38
48015;BME280;33780;51.034;7.120;2023-04-28T02:42:21;100420.53;;;12.97;61.65
48015;BME280;33780;51.034;7.120;2023-04-28T02:44:46;100409.97;;;12.96;62.51
48015;BME280;33780;51.034;7.120;2023-04-28T02:47:11;100410.28;;;12.93;62.09
48015;BME280;33780;51.034;7.120;2023-04-28T02:49:37;100411.41;;;12.90;62.56
48015;BME280;33780;51.034;7.120;2023-04-28T02:52:02;100415.06;;;12.89;63.41
48015;BME280;33780;51.034;7.120;2023-04-28T02:54:27;100410.88;;;12.87;62.77
48015;BME280;33780;51.034;7.120;2023-04-28T02:56:54;100409.03;;;12.87;62.83
48015;BME280;33780;51.034;7.120;2023-04-28T02:59:20;100410.19;;;12.85;62.83
48015;BME280;33780;51.034;7.120;2023-04-28T03:01:45;100399.59;;;12.83;63.24
48015;BME280;33780;51.034;7.120;2023-04-28T03:04:11;100396.06;;;12.83;63.08
48015;BME280;33780;51.034;7.120;2023-04-28T03:06:36;100385.63;;;12.80;63.56
48015;BME280;33780;51.034;7.120;2023-04-28T03:09:01;100390.31;;;12.78;63.69
48015;BME280;33780;51.034;7.120;2023-04-28T03:11:28;100388.91;;;12.74;64.18
48015;BME280;33780;51.034;7.120;2023-04-28T03:13:53;100386.38;;;12.72;63.72
48015;BME280;33780;51.034;7.120;2023-04-28T03:16:18;100389.91;;;12.73;63.44
48015;BME280;33780;51.034;7.120;2023-04-28T03:18:43;100382.19;;;12.69;64.96
48015;BME280;33780;51.034;7.120;2023-04-28T03:21:09;100379.97;;;12.65;64.68
48015;BME280;33780;51.034;7.120;2023-04-28T03:23:34;100384.63;;;12.63;64.81
48015;BME280;33780;51.034;7.120;2023-04-28T03:25:59;100372.06;;;12.63;64.20
48015;BME280;33780;51.034;7.120;2023-04-28T03:28:24;100373.91;;;12.63;64.38
48015;BME280;33780;51.034;7.120;2023-04-28T03:30:50;100368.53;;;12.63;64.41
48015;BME280;33780;51.034;7.120;2023-04-28T03:33:15;100364.00;;;12.63;64.61
48015;BME280;33780;51.034;7.120;2023-04-28T03:35:40;100373.75;;;12.64;63.94
48015;BME280;33780;51.034;7.120;2023-04-28T03:38:06;100383.47;;;12.65;64.35
48015;BME280;33780;51.034;7.120;2023-04-28T03:40:31;100375.28;;;12.67;64.11
48015;BME280;33780;51.034;7.120;2023-04-28T03:42:57;100367.06;;;12.68;64.24
48015;BME280;33780;51.034;7.120;2023-04-28T03:45:23;100360.00;;;12.67;64.06
48015;BME280;33780;51.034;7.120;2023-04-28T03:47:48;100356.47;;;12.67;64.60
48015;BME280;33780;51.034;7.120;2023-04-28T03:50:14;100357.31;;;12.67;64.36
48015;BME280;33780;51.034;7.120;2023-04-28T03:52:39;100349.44;;;12.66;63.89
48015;BME280;33780;51.034;7.120;2023-04-28T03:55:04;100347.75;;;12.65;63.73
48015;BME280;33780;51.034;7.120;2023-04-28T03:57:30;100346.06;;;12.64;64.91
48015;BME280;33780;51.034;7.120;2023-04-28T03:59:55;100344.53;;;12.61;64.75
48015;BME280;33780;51.034;7.120;2023-04-28T04:02:20;100345.53;;;12.60;64.45
48015;BME280;33780;51.034;7.120;2023-04-28T04:04:46;100327.72;;;12.59;64.91
48015;BME280;33780;51.034;7.120;2023-04-28T04:07:12;100327.72;;;12.59;64.37
48015;BME280;33780;51.034;7.120;2023-04-28T04:09:37;100324.38;;;12.57;64.74
48015;BME280;33780;51.034;7.120;2023-04-28T04:12:02;100314.75;;;12.55;64.90
48015;BME280;33780;51.034;7.120;2023-04-28T04:14:28;100314.91;;;12.53;65.05
48015;BME280;33780;51.034;7.120;2023-04-28T04:16:53;100301.50;;;12.53;65.15
48015;BME280;33780;51.034;7.120;2023-04-28T04:19:19;100298.13;;;12.51;64.88
48015;BME280;33780;51.034;7.120;2023-04-28T04:21:45;100291.06;;;12.50;65.01
48015;BME280;33780;51.034;7.120;2023-04-28T04:24:10;100299.44;;;12.47;65.31
48015;BME280;33780;51.034;7.120;2023-04-28T04:26:35;100281.66;;;12.46;65.04
48015;BME280;33780;51.034;7.120;2023-04-28T04:29:01;100276.13;;;12.48;64.75
48015;BME280;33780;51.034;7.120;2023-04-28T04:31:26;100273.44;;;12.48;64.54
48015;BME280;33780;51.034;7.120;2023-04-28T04:33:51;100264.53;;;12.47;64.37
48015;BME280;33780;51.034;7.120;2023-04-28T04:36:17;100267.22;;;12.47;64.56
48015;BME280;33780;51.034;7.120;2023-04-28T04:38:42;100271.06;;;12.45;64.68
48015;BME280;33780;51.034;7.120;2023-04-28T04:41:08;100267.69;;;12.43;65.04
48015;BME280;33780;51.034;7.120;2023-04-28T04:43:33;100271.22;;;12.43;64.62
48015;BME280;33780;51.034;7.120;2023-04-28T04:45:58;100274.06;;;12.42;64.89
48015;BME280;33780;51.034;7.120;2023-04-28T04:48:24;100278.59;;;12.41;65.64
48015;BME280;33780;51.034;7.120;2023-04-28T04:50:49;100279.59;;;12.40;65.16
48015;BME280;33780;51.034;7.120;2023-04-28T04:53:14;100291.16;;;12.40;64.87
48015;BME280;33780;51.034;7.120;2023-04-28T04:55:40;100289.16;;;12.43;64.98
48015;BME280;33780;51.034;7.120;2023-04-28T04:58:05;100288.00;;;12.45;64.67
48015;BME280;33780;51.034;7.120;2023-04-28T05:00:30;100295.91;;;12.47;64.45
48015;BME280;33780;51.034;7.120;2023-04-28T05:02:56;100282.34;;;12.48;64.66
48015;BME280;33780;51.034;7.120;2023-04-28T05:05:21;100279.50;;;12.50;64.85
48015;BME280;33780;51.034;7.120;2023-04-28T05:07:46;100286.53;;;12.51;64.48
48015;BME280;33780;51.034;7.120;2023-04-28T05:10:12;100284.84;;;12.50;64.38
48015;BME280;33780;51.034;7.120;2023-04-28T05:12:37;100284.84;;;12.50;64.49
48015;BME280;33780;51.034;7.120;2023-04-28T05:15:04;100288.22;;;12.52;64.27
48015;BME280;33780;51.034;7.120;2023-04-28T05:17:30;100292.59;;;12.53;64.64
48015;BME280;33780;51.034;7.120;2023-04-28T05:19:56;100298.97;;;12.52;64.41
48015;BME280;33780;51.034;7.120;2023-04-28T05:22:21;100294.59;;;12.51;64.34
48015;BME280;33780;51.034;7.120;2023-04-28T05:24:46;100298.97;;;12.52;65.10
48015;BME280;33780;51.034;7.120;2023-04-28T05:27:11;100291.75;;;12.52;65.20
48015;BME280;33780;51.034;7.120;2023-04-28T05:29:37;100285.38;;;12.53;64.93
48015;BME280;33780;51.034;7.120;2023-04-28T05:32:02;100294.28;;;12.54;64.91
48015;BME280;33780;51.034;7.120;2023-04-28T05:34:27;100284.38;;;12.54;65.37
48015;BME280;33780;51.034;7.120;2023-04-28T05:36:52;100274.50;;;12.55;64.83
48015;BME280;33780;51.034;7.120;2023-04-28T05:39:18;100275.34;;;12.55;64.84
48015;BME280;33780;51.034;7.120;2023-04-28T05:41:43;100275.22;;;12.57;65.41
48015;BME280;33780;51.034;7.120;2023-04-28T05:44:08;100289.47;;;12.57;65.34
48015;BME280;33780;51.034;7.120;2023-04-28T05:46:35;100284.22;;;12.56;65.57
48015;BME280;33780;51.034;7.120;2023-04-28T05:49:00;100289.59;;;12.56;65.80
48015;BME280;33780;51.034;7.120;2023-04-28T05:51:25;100282.38;;;12.56;65.56
48015;BME280;33780;51.034;7.120;2023-04-28T05:53:51;100289.47;;;12.57;65.24
48015;BME280;33780;51.034;7.120;2023-04-28T05:56:16;100285.94;;;12.57;66.59
48015;BME280;33780;51.034;7.120;2023-04-28T05:58:42;100279.69;;;12.56;66.00
48015;BME280;33780;51.034;7.120;2023-04-28T06:01:09;100280.56;;;12.57;66.35
48015;BME280;33780;51.034;7.120;2023-04-28T06:03:34;100285.63;;;12.60;66.50
48015;BME280;33780;51.034;7.120;2023-04-28T06:06:00;100275.56;;;12.62;65.99
48015;BME280;33780;51.034;7.120;2023-04-28T06:08:25;100267.19;;;12.65;66.00
48015;BME280;33780;51.034;7.120;2023-04-28T06:10:50;100266.88;;;12.68;66.55
48015;BME280;33780;51.034;7.120;2023-04-28T06:13:15;100274.78;;;12.69;66.90
48015;BME280;33780;51.034;7.120;2023-04-28T06:15:41;100269.56;;;12.68;66.93
48015;BME280;33780;51.034;7.120;2023-04-28T06:18:06;100267.72;;;12.68;67.10
48015;BME280;33780;51.034;7.120;2023-04-28T06:20:33;100266.72;;;12.69;66.78
48015;BME280;33780;51.034;7.120;2023-04-28T06:22:59;100264.72;;;12.71;67.68
48015;BME280;33780;51.034;7.120;2023-04-28T06:25:25;100260.19;;;12.72;67.26
48015;BME280;33780;51.034;7.120;2023-04-28T06:27:50;100261.72;;;12.75;67.37
48015;BME280;33780;51.034;7.120;2023-04-28T06:30:20;100260.59;;;12.77;67.20
48015;BME280;33780;51.034;7.120;2023-04-28T06:32:46;100261.44;;;12.78;67.34
48015;BME280;33780;51.034;7.120;2023-04-28T06:35:12;100270.34;;;12.78;67.06
48015;BME280;33780;51.034;7.120;2023-04-28T06:37:37;100262.28;;;12.78;67.28
48015;BME280;33780;51.034;7.120;2023-04-28T06:40:03;100257.59;;;12.80;67.09
48015;BME280;33780;51.034;7.120;2023-04-28T06:42:28;100264.47;;;12.83;67.25
48015;BME280;33780;51.034;7.120;2023-04-28T06:44:53;100256.09;;;12.86;67.28
48015;BME280;33780;51.034;7.120;2023-04-28T06:47:18;100261.84;;;12.91;67.25
48015;BME280;33780;51.034;7.120;2023-04-28T06:49:44;100264.91;;;12.96;67.32
48015;BME280;33780;51.034;7.120;2023-04-28T06:52:11;100270.66;;;13.01;67.36
48015;BME280;33780;51.034;7.120;2023-04-28T06:54:38;100270.16;;;13.06;67.09
48015;BME280;33780;51.034;7.120;2023-04-28T06:57:03;100263.47;;;13.10;67.94
48015;BME280;33780;51.034;7.120;2023-04-28T06:59:29;100269.91;;;13.17;67.63
48015;BME280;33780;51.034;7.120;2023-04-28T07:01:55;100268.44;;;13.22;67.55
48015;BME280;33780;51.034;7.120;2023-04-28T07:04:21;100272.31;;;13.28;67.32
48015;BME280;33780;51.034;7.120;2023-04-28T07:06:46;100264.66;;;13.33;67.50
48015;BME280;33780;51.034;7.120;2023-04-28T07:09:11;100263.47;;;13.36;68.10
48015;BME280;33780;51.034;7.120;2023-04-28T07:11:36;100272.38;;;13.36;67.73
48015;BME280;33780;51.034;7.120;2023-04-28T07:14:02;100279.44;;;13.37;67.85
48015;BME280;33780;51.034;7.120;2023-04-28T07:16:27;100269.53;;;13.38;67.59
48015;BME280;33780;51.034;7.120;2023-04-28T07:18:52;100264.16;;;13.38;67.80
48015;BME280;33780;51.034;7.120;2023-04-28T07:21:18;100264.84;;;13.40;67.78
48015;BME280;33780;51.034;7.120;2023-04-28T07:23:44;100276.94;;;13.44;67.35
48015;BME280;33780;51.034;7.120;2023-04-28T07:26:10;100286.22;;;13.49;67.94
48015;BME280;33780;51.034;7.120;2023-04-28T07:28:35;100276.84;;;13.53;67.31
48015;BME280;33780;51.034;7.120;2023-04-28T07:31:00;100269.44;;;13.55;67.60
48015;BME280;33780;51.034;7.120;2023-04-28T07:33:26;100276.34;;;13.58;67.74
48015;BME280;33780;51.034;7.120;2023-04-28T07:35:52;100281.94;;;13.65;67.65
48015;BME280;33780;51.034;7.120;2023-04-28T07:38:17;100277.22;;;13.67;67.63
48015;BME280;33780;51.034;7.120;2023-04-28T07:40:44;100274.22;;;13.70;67.65
48015;BME280;33780;51.034;7.120;2023-04-28T07:43:10;100270.19;;;13.74;67.78
48015;BME280;33780;51.034;7.120;2023-04-28T07:45:38;100274.22;;;13.78;67.90
48015;BME280;33780;51.034;7.120;2023-04-28T07:48:03;100270.53;;;13.79;67.58
48015;BME280;33780;51.034;7.120;2023-04-28T07:50:29;100272.03;;;13.81;68.19
48015;BME280;33780;51.034;7.120;2023-04-28T07:52:54;100282.97;;;13.80;68.52
48015;BME280;33780;51.034;7.120;2023-04-28T07:55:19;100280.28;;;13.80;68.16
48015;BME280;33780;51.034;7.120;2023-04-28T07:57:44;100275.75;;;13.80;68.13
48015;BME280;33780;51.034;7.120;2023-04-28T08:00:10;100268.22;;;13.84;68.21
48015;BME280;33780;51.034;7.120;2023-04-28T08:02:36;100272.25;;;13.88;68.19
48015;BME280;33780;51.034;7.120;2023-04-28T08:05:01;100268.56;;;13.89;68.45
48015;BME280;33780;51.034;7.120;2023-04-28T08:07:27;100271.91;;;13.91;68.44
48015;BME280;33780;51.034;7.120;2023-04-28T08:09:52;100277.63;;;13.96;68.01
48015;BME280;33780;51.034;7.120;2023-04-28T08:12:19;100277.16;;;14.01;67.94
48015;BME280;33780;51.034;7.120;2023-04-28T08:14:44;100272.28;;;14.04;68.19
48015;BME280;33780;51.034;7.120;2023-04-28T08:17:10;100265.72;;;14.07;68.19
48015;BME280;33780;51.034;7.120;2023-04-28T08:19:36;100279.88;;;14.09;68.45
48015;BME280;33780;51.034;7.120;2023-04-28T08:22:01;100277.84;;;14.11;68.36
48015;BME280;33780;51.034;7.120;2023-04-28T08:24:30;100275.81;;;14.13;67.75
48015;BME280;33780;51.034;7.120;2023-04-28T08:26:59;100270.09;;;14.16;68.47
48015;BME280;33780;51.034;7.120;2023-04-28T08:29:27;100266.28;;;14.18;68.30
48015;BME280;33780;51.034;7.120;2023-04-28T08:31:52;100269.47;;;14.22;68.28
48015;BME280;33780;51.034;7.120;2023-04-28T08:34:20;100265.59;;;14.25;68.58
48015;BME280;33780;51.034;7.120;2023-04-28T08:36:45;100264.59;;;14.26;68.44
48015;BME280;33780;51.034;7.120;2023-04-28T08:39:11;100267.78;;;14.29;68.48
48015;BME280;33780;51.034;7.120;2023-04-28T08:41:37;100265.94;;;14.30;68.66
48015;BME280;33780;51.034;7.120;2023-04-28T08:44:10;100261.22;;;14.32;68.28
48015;BME280;33780;51.034;7.120;2023-04-28T08:46:39;100256.31;;;14.35;68.75
48015;BME280;33780;51.034;7.120;2023-04-28T08:49:06;100264.94;;;14.39;68.85
48015;BME280;33780;51.034;7.120;2023-04-28T08:51:37;100260.75;;;14.44;68.88
48015;BME280;33780;51.034;7.120;2023-04-28T08:54:08;100259.91;;;14.52;68.89
48015;BME280;33780;51.034;7.120;2023-04-28T08:56:35;100244.59;;;14.61;69.57
48015;BME280;33780;51.034;7.120;2023-04-28T08:59:04;100243.41;;;14.71;68.81
48015;BME280;33780;51.034;7.120;2023-04-28T09:01:30;100263.94;;;14.80;69.12
48015;BME280;33780;51.034;7.120;2023-04-28T09:03:56;100270.31;;;14.88;68.95
48015;BME280;33780;51.034;7.120;2023-04-28T09:06:21;100270.66;;;14.93;69.24
48015;BME280;33780;51.034;7.120;2023-04-28T09:08:47;100269.31;;;14.97;69.29
48015;BME280;33780;51.034;7.120;2023-04-28T09:11:12;100275.00;;;15.02;69.41
48015;BME280;33780;51.034;7.120;2023-04-28T09:13:39;100266.75;;;15.03;69.54
48015;BME280;33780;51.034;7.120;2023-04-28T09:16:05;100266.59;;;15.05;69.38
48015;BME280;33780;51.034;7.120;2023-04-28T09:18:30;100268.94;;;15.08;69.25
48015;BME280;33780;51.034;7.120;2023-04-28T09:21:05;100260.00;;;15.07;69.16
48015;BME280;33780;51.034;7.120;2023-04-28T09:23:30;100263.53;;;15.08;69.17
48015;BME280;33780;51.034;7.120;2023-04-28T09:26:04;100257.66;;;15.04;69.45
48015;BME280;33780;51.034;7.120;2023-04-28T09:28:31;100264.22;;;15.02;69.33
48015;BME280;33780;51.034;7.120;2023-04-28T09:30:56;100266.25;;;15.00;69.33
48015;BME280;33780;51.034;7.120;2023-04-28T09:33:22;100258.34;;;14.98;69.28
48015;BME280;33780;51.034;7.120;2023-04-28T09:35:47;100266.78;;;14.95;69.23
48015;BME280;33780;51.034;7.120;2023-04-28T09:38:14;100270.50;;;14.94;69.28
48015;BME280;33780;51.034;7.120;2023-04-28T09:40:54;100265.28;;;14.93;69.70
48015;BME280;33780;51.034;7.120;2023-04-28T09:43:31;100264.63;;;14.91;69.63
48015;BME280;33780;51.034;7.120;2023-04-28T09:45:59;100268.28;;;14.90;69.76
48015;BME280;33780;51.034;7.120;2023-04-28T09:48:29;100264.63;;;14.91;69.83
48015;BME280;33780;51.034;7.120;2023-04-28T09:50:55;100267.13;;;14.92;70.31
48015;BME280;33780;51.034;7.120;2023-04-28T09:53:25;100263.25;;;14.95;70.27
48015;BME280;33780;51.034;7.120;2023-04-28T09:55:51;100257.34;;;14.99;70.60
48015;BME280;33780;51.034;7.120;2023-04-28T09:58:21;100263.22;;;15.03;70.96
48015;BME280;33780;51.034;7.120;2023-04-28T10:00:52;100266.94;;;15.02;71.18
48015;BME280;33780;51.034;7.120;2023-04-28T10:03:23;100259.84;;;15.01;71.35
48015;BME280;33780;51.034;7.120;2023-04-28T10:05:49;100262.91;;;14.98;71.39
48015;BME280;33780;51.034;7.120;2023-04-28T10:08:16;100273.00;;;14.96;71.53
48015;BME280;33780;51.034;7.120;2023-04-28T10:10:42;100264.44;;;14.92;71.62
48015;BME280;33780;51.034;7.120;2023-04-28T10:13:08;100262.06;;;14.89;72.25
48015;BME280;33780;51.034;7.120;2023-04-28T10:15:34;100258.88;;;14.86;72.27
48015;BME280;33780;51.034;7.120;2023-04-28T10:18:01;100260.06;;;14.83;72.17
48015;BME280;33780;51.034;7.120;2023-04-28T10:20:28;100252.31;;;14.80;72.34
48015;BME280;33780;51.034;7.120;2023-04-28T10:23:16;100249.81;;;14.78;72.15
48015;BME280;33780;51.034;7.120;2023-04-28T10:25:48;100258.06;;;14.77;73.03
48015;BME280;33780;51.034;7.120;2023-04-28T10:28:18;100249.81;;;14.78;72.67
48015;BME280;33780;51.034;7.120;2023-04-28T10:33:39;100251.47;;;14.79;73.25
48015;BME280;33780;51.034;7.120;2023-04-28T10:36:05;100255.84;;;14.80;73.61
48015;BME280;33780;51.034;7.120;2023-04-28T10:38:31;100247.44;;;14.84;73.75
48015;BME280;33780;51.034;7.120;2023-04-28T10:40:57;100244.38;;;14.87;74.18
48015;BME280;33780;51.034;7.120;2023-04-28T10:56:07;100246.91;;;14.88;74.20
48015;BME280;33780;51.034;7.120;2023-04-28T10:58:32;100252.13;;;14.90;74.57
48015;BME280;33780;51.034;7.120;2023-04-28T11:08:43;100240.81;;;15.02;74.76
48015;BME280;33780;51.034;7.120;2023-04-28T11:11:12;100242.16;;;15.06;74.81
48015;BME280;33780;51.034;7.120;2023-04-28T11:13:40;100236.44;;;15.09;75.00
48015;BME280;33780;51.034;7.120;2023-04-28T11:16:06;100236.75;;;15.15;75.25
48015;BME280;33780;51.034;7.120;2023-04-28T11:21:17;100230.47;;;15.30;75.48
48015;BME280;33780;51.034;7.120;2023-04-28T11:23:44;100225.03;;;15.38;75.47
48015;BME280;33780;51.034;7.120;2023-04-28T11:26:09;100227.19;;;15.43;75.72
48015;BME280;33780;51.034;7.120;2023-04-28T11:28:35;100215.91;;;15.48;75.80
48015;BME280;33780;51.034;7.120;2023-04-28T11:31:14;100227.19;;;15.51;75.29
48015;BME280;33780;51.034;7.120;2023-04-28T11:33:45;100219.56;;;15.55;75.74
48015;BME280;33780;51.034;7.120;2023-04-28T11:38:57;100234.03;;;15.70;75.77
48015;BME280;33780;51.034;7.120;2023-04-28T11:41:22;100226.06;;;15.77;75.80
48015;BME280;33780;51.034;7.120;2023-04-28T11:43:48;100222.13;;;15.87;76.05
48015;BME280;33780;51.034;7.120;2023-04-28T11:46:21;100214.63;;;15.97;76.05
48015;BME280;33780;51.034;7.120;2023-04-28T11:48:47;100218.97;;;16.07;76.36
48015;BME280;33780;51.034;7.120;2023-04-28T11:51:35;100216.69;;;16.18;75.76
48015;BME280;33780;51.034;7.120;2023-04-28T11:54:03;100210.66;;;16.31;75.94
48015;BME280;33780;51.034;7.120;2023-04-28T11:56:29;100216.31;;;16.44;76.02
48015;BME280;33780;51.034;7.120;2023-04-28T11:59:01;100206.94;;;16.55;75.80
48015;BME280;33780;51.034;7.120;2023-04-28T12:01:29;100214.44;;;16.68;76.05
48015;BME280;33780;51.034;7.120;2023-04-28T12:03:55;100213.91;;;16.72;75.91
48015;BME280;33780;51.034;7.120;2023-04-28T12:06:20;100216.59;;;16.72;75.22
48015;BME280;33780;51.034;7.120;2023-04-28T12:08:47;100222.19;;;16.71;75.29
48015;BME280;33780;51.034;7.120;2023-04-28T12:11:13;100217.13;;;16.68;75.24
48015;BME280;33780;51.034;7.120;2023-04-28T12:13:39;100220.84;;;16.67;75.07
48015;BME280;33780;51.034;7.120;2023-04-28T12:16:05;100215.09;;;16.70;74.99
48015;BME280;33780;51.034;7.120;2023-04-28T12:18:32;100208.59;;;16.79;74.99
48015;BME280;33780;51.034;7.120;2023-04-28T12:20:57;100214.38;;;16.90;74.91
48015;BME280;33780;51.034;7.120;2023-04-28T12:25:56;100201.63;;;17.14;74.51
48015;BME280;33780;51.034;7.120;2023-04-28T12:28:21;100206.75;;;17.24;74.85
48015;BME280;33780;51.034;7.120;2023-04-28T12:30:47;100198.97;;;17.35;74.56
48015;BME280;33780;51.034;7.120;2023-04-28T12:33:23;100192.81;;;17.41;74.40
48015;BME280;33780;51.034;7.120;2023-04-28T12:35:52;100197.69;;;17.46;74.33
48015;BME280;33780;51.034;7.120;2023-04-28T12:38:19;100191.09;;;17.55;74.15
48015;BME280;33780;51.034;7.120;2023-04-28T12:40:44;100196.22;;;17.65;74.48
48015;BME280;33780;51.034;7.120;2023-04-28T12:43:09;100184.03;;;17.69;74.50
48015;BME280;33780;51.034;7.120;2023-04-28T12:45:35;100184.47;;;17.72;74.43
48015;BME280;33780;51.034;7.120;2023-04-28T12:48:00;100185.84;;;17.83;74.23
48015;BME280;33780;51.034;7.120;2023-04-28T12:50:26;100174.88;;;17.91;73.66
48015;BME280;33780;51.034;7.120;2023-04-28T12:52:53;100177.09;;;18.02;73.52
48015;BME280;33780;51.034;7.120;2023-04-28T12:55:20;100174.84;;;18.06;73.46
48015;BME280;33780;51.034;7.120;2023-04-28T12:57:45;100173.22;;;18.11;73.49
48015;BME280;33780;51.034;7.120;2023-04-28T13:00:11;100167.72;;;18.26;72.83
48015;BME280;33780;51.034;7.120;2023-04-28T13:02:38;100167.00;;;18.39;73.10
48015;BME280;33780;51.034;7.120;2023-04-28T13:05:04;100168.72;;;18.47;72.74
48015;BME280;33780;51.034;7.120;2023-04-28T13:07:30;100162.56;;;18.59;72.60
48015;BME280;33780;51.034;7.120;2023-04-28T13:09:56;100160.41;;;18.69;72.75
48015;BME280;33780;51.034;7.120;2023-04-28T13:12:21;100160.03;;;18.79;72.98
48015;BME280;33780;51.034;7.120;2023-04-28T13:14:48;100158.84;;;18.88;72.48
48015;BME280;33780;51.034;7.120;2023-04-28T13:17:13;100157.03;;;19.02;71.92